createdAt,value
2019-05-21T00:00:28.560Z,48.73
2019-05-21T00:02:57.043Z,47.50
2019-05-21T00:05:25.553Z,43.63
2019-05-21T00:07:53.975Z,42.00
2019-05-21T00:10:22.486Z,42.43
2019-05-21T00:12:50.931Z,51.07
2019-05-21T00:15:19.365Z,45.60
2019-05-21T00:17:47.804Z,45.60
2019-05-21T00:20:16.365Z,47.23
2019-05-21T00:22:44.788Z,53.10
2019-05-21T00:25:17.188Z,52.70
2019-05-21T00:27:44.609Z,49.63
2019-05-21T00:30:49.498Z,50.50
2019-05-21T00:33:54.486Z,46.00
2019-05-21T00:37:01.210Z,46.27
2019-05-21T00:40:06.164Z,45.80
2019-05-21T00:42:37.679Z,44.40
2019-05-21T00:45:09.006Z,42.13
2019-05-21T00:47:37.442Z,44.17
2019-05-21T00:50:07.705Z,45.37
2019-05-21T00:52:36.274Z,52.50
2019-05-21T00:55:06.239Z,47.20
2019-05-21T00:57:34.676Z,50.47
2019-05-21T01:00:03.584Z,45.40
2019-05-21T01:02:32.262Z,52.23
2019-05-21T01:05:01.655Z,54.40
2019-05-21T01:07:30.265Z,45.57
2019-05-21T01:09:58.681Z,44.00
2019-05-21T01:12:27.116Z,52.37
2019-05-21T01:14:55.535Z,52.30
2019-05-21T01:17:23.969Z,59.27
2019-05-21T01:19:52.386Z,50.03
2019-05-21T01:22:20.815Z,56.80
2019-05-21T01:24:49.238Z,55.17
2019-05-21T01:27:17.668Z,51.90
2019-05-21T01:29:46.081Z,53.80
2019-05-21T01:32:14.513Z,56.37
2019-05-21T01:34:42.935Z,47.53
2019-05-21T01:37:11.363Z,51.30
2019-05-21T01:39:39.783Z,58.73
2019-05-21T01:42:08.216Z,69.50
2019-05-21T01:44:36.634Z,66.90
2019-05-21T01:47:05.068Z,74.53
2019-05-21T01:49:33.496Z,75.47
2019-05-21T01:52:01.928Z,65.20
2019-05-21T01:54:30.363Z,68.27
2019-05-21T01:56:58.787Z,65.57
2019-05-21T01:59:27.204Z,61.63
2019-05-21T02:01:55.648Z,57.30
2019-05-21T02:04:24.064Z,54.50
2019-05-21T02:06:52.859Z,54.40
2019-05-21T02:09:21.294Z,55.07
2019-05-21T02:11:49.704Z,51.00
2019-05-21T02:14:18.145Z,44.77
2019-05-21T02:16:46.560Z,51.93
2019-05-21T02:19:15.048Z,44.43
2019-05-21T02:21:43.432Z,45.97
2019-05-21T02:24:11.902Z,48.40
2019-05-21T02:26:40.331Z,47.93
2019-05-21T02:29:08.754Z,53.03
2019-05-21T02:31:37.184Z,52.53
2019-05-21T02:34:05.654Z,54.00
2019-05-21T02:36:34.088Z,52.47
2019-05-21T02:39:02.512Z,57.93
2019-05-21T02:41:30.937Z,59.83
2019-05-21T02:43:59.361Z,64.13
2019-05-21T02:46:27.778Z,59.97
2019-05-21T02:48:56.217Z,58.77
2019-05-21T02:51:25.274Z,56.70
2019-05-21T02:53:53.716Z,67.90
2019-05-21T02:56:22.123Z,66.80
2019-05-21T02:58:50.559Z,68.70
2019-05-21T03:01:35.588Z,66.60
2019-05-21T03:04:04.098Z,76.07
2019-05-21T03:06:32.516Z,73.77
2019-05-21T03:09:00.958Z,73.03
2019-05-21T03:11:29.377Z,81.43
2019-05-21T03:13:57.813Z,93.10
2019-05-21T03:16:26.251Z,82.27
2019-05-21T03:18:54.733Z,80.80
2019-05-21T03:21:23.174Z,90.07
2019-05-21T03:23:51.605Z,84.10
2019-05-21T03:26:20.037Z,108.00
2019-05-21T03:28:48.468Z,97.30
2019-05-21T03:31:16.904Z,86.90
2019-05-21T03:33:45.318Z,81.43
2019-05-21T03:36:31.137Z,91.93
2019-05-21T03:38:43.894Z,81.80
2019-05-21T03:41:12.314Z,83.30
2019-05-21T03:43:40.745Z,87.37
2019-05-21T03:46:09.164Z,91.03
2019-05-21T03:48:37.599Z,85.03
2019-05-21T03:51:06.016Z,85.53
2019-05-21T03:53:34.444Z,88.07
2019-05-21T03:56:02.883Z,79.63
2019-05-21T03:58:31.305Z,77.80
2019-05-21T04:00:59.725Z,84.97
2019-05-21T04:03:28.145Z,77.90
2019-05-21T04:05:56.595Z,92.53
2019-05-21T04:08:25.014Z,81.67
2019-05-21T04:10:53.442Z,92.47
2019-05-21T04:16:02.042Z,103.67
2019-05-21T04:18:44.156Z,75.27
2019-05-21T04:21:12.583Z,82.60
2019-05-21T04:23:40.991Z,90.97
2019-05-21T04:26:09.423Z,80.30
2019-05-21T04:28:37.841Z,79.33
2019-05-21T04:31:06.274Z,81.87
2019-05-21T04:33:34.685Z,78.23
2019-05-21T04:36:03.111Z,70.77
2019-05-21T04:38:31.524Z,73.90
2019-05-21T04:40:59.966Z,75.47
2019-05-21T04:43:28.383Z,79.10
2019-05-21T04:45:56.816Z,72.63
2019-05-21T04:48:25.281Z,69.13
2019-05-21T04:50:53.778Z,74.13
2019-05-21T04:53:22.187Z,69.80
2019-05-21T04:55:50.614Z,70.97
2019-05-21T04:58:19.030Z,64.43
2019-05-21T05:00:47.459Z,64.83
2019-05-21T05:03:15.873Z,65.07
2019-05-21T05:05:44.304Z,62.77
2019-05-21T05:08:12.723Z,56.43
2019-05-21T05:10:41.161Z,59.50
2019-05-21T05:13:09.561Z,49.37
2019-05-21T05:15:38.023Z,50.20
2019-05-21T05:18:06.396Z,52.00
2019-05-21T05:20:34.819Z,47.23
2019-05-21T05:23:03.243Z,45.03
2019-05-21T05:25:31.674Z,43.00
2019-05-21T05:28:00.090Z,42.60
2019-05-21T05:30:28.513Z,42.97
2019-05-21T05:32:56.925Z,40.00
2019-05-21T05:35:25.358Z,45.30
2019-05-21T05:37:53.771Z,45.37
2019-05-21T05:40:22.333Z,42.73
2019-05-21T05:42:50.742Z,45.07
2019-05-21T05:45:19.524Z,38.93
2019-05-21T05:47:47.934Z,34.80
2019-05-21T05:50:32.974Z,35.50
2019-05-21T05:53:01.388Z,36.77
2019-05-21T05:55:29.814Z,33.20
2019-05-21T05:57:58.225Z,31.90
2019-05-21T06:00:26.716Z,31.07
2019-05-21T06:02:55.142Z,29.57
2019-05-21T06:05:23.551Z,27.97
2019-05-21T06:07:59.806Z,24.87
2019-05-21T06:10:22.119Z,23.87
2019-05-21T06:12:50.549Z,22.77
2019-05-21T06:15:19.227Z,27.67
2019-05-21T06:17:47.648Z,24.30
2019-05-21T06:20:16.815Z,24.40
2019-05-21T06:22:45.259Z,24.93
2019-05-21T06:25:13.909Z,22.90
2019-05-21T06:27:42.326Z,22.97
2019-05-21T06:30:11.195Z,22.13
2019-05-21T06:32:39.607Z,20.63
2019-05-21T06:35:08.256Z,21.60
2019-05-21T06:37:36.685Z,20.53
2019-05-21T06:40:06.152Z,18.83
2019-05-21T06:42:34.579Z,17.90
2019-05-21T06:45:03.586Z,17.90
2019-05-21T06:47:32.134Z,19.90
2019-05-21T06:50:00.558Z,18.03
2019-05-21T06:52:28.987Z,19.57
2019-05-21T06:54:57.404Z,17.77
2019-05-21T06:57:25.831Z,17.63
2019-05-21T06:59:54.238Z,15.87
2019-05-21T07:02:22.657Z,17.63
2019-05-21T07:04:51.068Z,16.67
2019-05-21T07:07:19.504Z,14.67
2019-05-21T07:09:47.913Z,15.40
2019-05-21T07:12:16.338Z,15.20
2019-05-21T07:14:44.753Z,15.37
2019-05-21T07:17:13.190Z,18.10
2019-05-21T07:19:41.606Z,16.70
2019-05-21T07:22:12.978Z,16.03
2019-05-21T07:24:40.529Z,15.03
2019-05-21T07:27:08.973Z,15.23
2019-05-21T07:29:37.869Z,17.20
2019-05-21T07:32:06.376Z,14.63
2019-05-21T07:34:34.883Z,13.13
2019-05-21T07:37:03.336Z,15.70
2019-05-21T07:39:31.734Z,16.27
2019-05-21T07:42:00.259Z,14.43
2019-05-21T07:44:29.765Z,17.63
2019-05-21T07:47:02.283Z,16.60
2019-05-21T07:49:34.471Z,16.97
2019-05-21T07:52:03.476Z,17.27
2019-05-21T07:54:34.178Z,18.70
2019-05-21T07:57:02.819Z,16.50
2019-05-21T07:59:33.308Z,14.70
2019-05-21T08:02:08.124Z,14.07
2019-05-21T08:04:39.131Z,14.67
2019-05-21T08:07:11.438Z,15.53
2019-05-21T08:09:41.170Z,15.93
2019-05-21T08:12:27.905Z,13.97
2019-05-21T08:14:39.955Z,12.67
2019-05-21T08:17:08.434Z,12.90
2019-05-21T08:19:36.846Z,17.30
2019-05-21T08:22:05.278Z,12.63
2019-05-21T08:24:33.717Z,13.97
2019-05-21T08:27:02.148Z,15.47
2019-05-21T08:29:32.358Z,18.37
2019-05-21T08:32:00.778Z,14.77
2019-05-21T08:34:29.326Z,12.70
2019-05-21T08:37:05.233Z,18.50
2019-05-21T08:39:33.738Z,14.70
2019-05-21T08:42:02.211Z,19.07
2019-05-21T08:44:32.045Z,13.40
2019-05-21T08:47:06.781Z,12.80
2019-05-21T08:49:47.027Z,14.17
2019-05-21T08:52:16.131Z,14.03
2019-05-21T08:54:48.993Z,8.93
2019-05-21T08:57:17.821Z,9.30
2019-05-21T08:59:46.490Z,7.10
2019-05-21T09:02:15.769Z,8.27
2019-05-21T09:04:46.615Z,7.63
2019-05-21T09:07:14.510Z,7.77
2019-05-21T09:09:50.123Z,8.23
2019-05-21T09:12:13.115Z,12.30
2019-05-21T09:14:41.544Z,8.53
2019-05-21T09:17:09.934Z,6.97
2019-05-21T09:19:38.353Z,6.60
2019-05-21T09:22:06.754Z,7.07
2019-05-21T09:24:35.179Z,6.27
2019-05-21T09:27:03.657Z,6.83
2019-05-21T09:29:32.089Z,7.40
2019-05-21T09:32:00.507Z,7.67
2019-05-21T09:34:28.992Z,7.87
2019-05-21T09:36:57.403Z,5.93
2019-05-21T09:39:25.810Z,7.40
2019-05-21T09:41:54.251Z,7.40
2019-05-21T09:44:22.694Z,5.87
2019-05-21T09:46:51.183Z,9.43
2019-05-21T09:49:19.602Z,6.70
2019-05-21T09:51:48.033Z,8.87
2019-05-21T09:54:16.470Z,14.60
2019-05-21T09:56:44.885Z,13.70
2019-05-21T09:59:26.980Z,13.13
2019-05-21T10:01:57.034Z,15.27
2019-05-21T10:04:25.453Z,13.20
2019-05-21T10:06:53.873Z,13.93
2019-05-21T10:09:22.380Z,16.73
2019-05-21T10:11:50.794Z,17.80
2019-05-21T10:14:19.224Z,21.63
2019-05-21T10:16:47.636Z,17.17
2019-05-21T10:19:16.119Z,17.80
2019-05-21T10:21:44.599Z,24.40
2019-05-21T10:24:13.026Z,20.67
2019-05-21T10:26:41.433Z,19.57
2019-05-21T10:29:09.875Z,22.47
2019-05-21T10:31:38.294Z,20.40
2019-05-21T10:34:06.804Z,19.00
2019-05-21T10:36:35.221Z,17.87
2019-05-21T10:39:05.313Z,15.03
2019-05-21T10:41:33.725Z,14.13
2019-05-21T10:44:02.236Z,13.40
2019-05-21T10:46:30.655Z,14.23
2019-05-21T10:48:59.078Z,16.33
2019-05-21T10:51:27.493Z,12.57
2019-05-21T10:53:55.917Z,14.77
2019-05-21T10:56:24.329Z,14.03
2019-05-21T10:58:52.764Z,16.77
2019-05-21T11:01:39.080Z,13.50
2019-05-21T11:04:11.560Z,16.17
2019-05-21T11:06:41.709Z,15.00
2019-05-21T11:09:11.853Z,12.23
2019-05-21T11:11:40.268Z,15.77
2019-05-21T11:14:08.694Z,13.03
2019-05-21T11:16:37.119Z,13.33
2019-05-21T11:19:05.529Z,16.60
2019-05-21T11:21:33.968Z,15.80
2019-05-21T11:24:02.558Z,12.60
2019-05-21T11:26:31.039Z,14.37
2019-05-21T11:28:59.546Z,13.70
2019-05-21T11:31:27.965Z,13.17
2019-05-21T11:33:56.377Z,14.07
2019-05-21T11:36:24.805Z,12.90
2019-05-21T11:38:53.220Z,12.87
2019-05-21T11:41:21.656Z,14.17
2019-05-21T11:43:50.060Z,14.53
2019-05-21T11:46:18.485Z,12.63
2019-05-21T11:48:46.895Z,10.50
2019-05-21T11:51:15.424Z,7.50
2019-05-21T11:53:43.828Z,8.37
2019-05-21T11:56:12.249Z,8.23
2019-05-21T11:58:40.650Z,10.30
2019-05-21T12:01:09.074Z,7.20
2019-05-21T12:03:37.502Z,6.97
2019-05-21T12:06:05.958Z,5.50
2019-05-21T12:08:34.355Z,6.17
2019-05-21T12:11:02.778Z,6.73
2019-05-21T12:13:31.209Z,5.20
2019-05-21T12:15:59.598Z,5.73
2019-05-21T12:18:28.016Z,4.53
2019-05-21T12:23:40.944Z,4.40
2019-05-21T12:26:09.369Z,4.10
2019-05-21T12:28:37.767Z,4.13
2019-05-21T12:31:06.190Z,4.50
2019-05-21T12:33:35.255Z,3.80
2019-05-21T12:36:04.224Z,4.37
2019-05-21T12:38:32.628Z,6.73
2019-05-21T12:41:01.065Z,5.03
2019-05-21T12:43:29.478Z,5.20
2019-05-21T12:45:57.893Z,4.47
2019-05-21T12:48:26.298Z,4.50
2019-05-21T12:50:54.726Z,6.47
2019-05-21T12:53:23.126Z,5.70
2019-05-21T12:55:51.673Z,5.40
2019-05-21T12:58:20.027Z,5.77
2019-05-21T13:00:48.448Z,6.30
2019-05-21T13:03:16.871Z,5.77
2019-05-21T13:05:45.304Z,6.87
2019-05-21T13:08:13.709Z,6.20
2019-05-21T13:10:55.729Z,6.40
2019-05-21T13:13:24.150Z,7.10
2019-05-21T13:15:52.579Z,7.83
2019-05-21T13:18:21.062Z,7.30
2019-05-21T13:20:49.488Z,7.60
2019-05-21T13:23:17.893Z,7.07
2019-05-21T13:25:46.425Z,8.03
2019-05-21T13:28:14.809Z,9.10
2019-05-21T13:30:43.314Z,10.37
2019-05-21T13:33:11.735Z,10.00
2019-05-21T13:35:40.235Z,10.80
2019-05-21T13:38:13.150Z,11.53
2019-05-21T13:40:38.934Z,10.53
2019-05-21T13:43:07.430Z,11.23
2019-05-21T13:45:35.849Z,9.83
2019-05-21T13:48:04.325Z,9.20
2019-05-21T13:50:32.921Z,9.90
2019-05-21T13:53:01.337Z,13.53
2019-05-21T13:55:33.782Z,8.87
2019-05-21T13:57:59.897Z,9.57
2019-05-21T14:00:42.265Z,9.60
2019-05-21T14:03:10.764Z,9.30
2019-05-21T14:05:39.541Z,9.97
2019-05-21T14:08:08.052Z,10.00
2019-05-21T14:10:36.519Z,9.00
2019-05-21T14:13:05.263Z,9.13
2019-05-21T14:15:33.723Z,41.33
2019-05-21T14:18:02.433Z,37.80
2019-05-21T14:20:31.089Z,14.53
2019-05-21T14:22:59.719Z,9.20
2019-05-21T14:25:28.073Z,9.90
2019-05-21T14:27:56.797Z,12.97
2019-05-21T14:30:25.411Z,13.77
2019-05-21T14:32:53.832Z,12.40
2019-05-21T14:35:22.324Z,13.23
2019-05-21T14:37:50.760Z,15.10
2019-05-21T14:40:31.231Z,15.77
2019-05-21T14:42:59.867Z,16.83
2019-05-21T14:45:21.805Z,16.97
2019-05-21T14:47:50.228Z,16.77
2019-05-21T14:50:18.781Z,20.47
2019-05-21T14:52:51.976Z,17.87
2019-05-21T14:55:17.491Z,19.93
2019-05-21T14:57:46.003Z,22.37
2019-05-21T15:00:22.616Z,16.50
2019-05-21T15:02:51.050Z,17.40
2019-05-21T15:05:19.623Z,17.73
2019-05-21T15:07:49.770Z,17.07
2019-05-21T15:10:18.318Z,17.73
2019-05-21T15:12:46.802Z,15.10
2019-05-21T15:15:15.804Z,16.67
2019-05-21T15:17:44.285Z,19.07
2019-05-21T15:20:31.649Z,17.00
2019-05-21T15:23:00.133Z,18.00
2019-05-21T15:25:28.489Z,17.00
2019-05-21T15:27:56.916Z,13.93
2019-05-21T15:30:25.338Z,17.60
2019-05-21T15:32:53.765Z,17.93
2019-05-21T15:35:22.680Z,16.70
2019-05-21T15:37:51.104Z,16.73
2019-05-21T15:40:19.757Z,16.03
2019-05-21T15:42:52.690Z,16.67
2019-05-21T15:45:18.920Z,18.93
2019-05-21T15:47:47.346Z,16.77
2019-05-21T15:50:16.439Z,16.93
2019-05-21T15:52:44.875Z,15.37
2019-05-21T15:55:13.638Z,16.17
2019-05-21T15:57:42.122Z,16.10
2019-05-21T16:00:12.761Z,15.10
2019-05-21T16:02:41.503Z,15.97
2019-05-21T16:05:10.344Z,14.27
2019-05-21T16:07:38.805Z,15.30
2019-05-21T16:10:07.285Z,13.77
2019-05-21T16:12:35.728Z,14.93
2019-05-21T16:15:06.251Z,11.23
2019-05-21T16:17:34.680Z,11.70
2019-05-21T16:20:03.562Z,12.20
2019-05-21T16:22:31.989Z,10.17
2019-05-21T16:25:00.400Z,12.43
2019-05-21T16:27:28.842Z,11.80
2019-05-21T16:29:57.492Z,11.27
2019-05-21T16:32:25.852Z,10.60
2019-05-21T16:34:54.344Z,11.07
2019-05-21T16:37:22.750Z,12.47
2019-05-21T16:39:51.254Z,13.80
2019-05-21T16:42:19.869Z,18.23
2019-05-21T16:44:48.294Z,15.67
2019-05-21T16:47:16.892Z,26.00
2019-05-21T16:49:45.368Z,18.73
2019-05-21T16:52:13.944Z,22.17
2019-05-21T16:54:42.369Z,19.80
2019-05-21T16:57:10.776Z,21.27
2019-05-21T16:59:39.217Z,21.57
2019-05-21T17:02:07.637Z,20.83
2019-05-21T17:04:36.075Z,23.30
2019-05-21T17:07:04.489Z,20.23
2019-05-21T17:09:32.910Z,21.03
2019-05-21T17:12:01.410Z,21.27
2019-05-21T17:14:29.838Z,17.87
2019-05-21T17:16:58.260Z,22.00
2019-05-21T17:19:26.682Z,18.00
2019-05-21T17:21:55.105Z,15.93
2019-05-21T17:24:23.531Z,18.93
2019-05-21T17:26:51.952Z,17.63
2019-05-21T17:29:20.395Z,18.13
2019-05-21T17:31:48.905Z,16.67
2019-05-21T17:34:17.329Z,19.33
2019-05-21T17:36:45.758Z,17.13
2019-05-21T17:39:14.183Z,17.77
2019-05-21T17:41:42.597Z,16.37
2019-05-21T17:44:11.028Z,26.60
2019-05-21T17:46:39.496Z,21.37
2019-05-21T17:49:07.950Z,20.43
2019-05-21T17:51:36.370Z,18.57
2019-05-21T17:54:04.939Z,19.20
2019-05-21T17:56:33.425Z,20.23
2019-05-21T17:59:01.864Z,22.43
2019-05-21T18:01:30.651Z,26.60
2019-05-21T18:03:59.091Z,22.27
2019-05-21T18:06:28.383Z,25.37
2019-05-21T18:08:56.810Z,24.60
2019-05-21T18:11:25.298Z,24.40
2019-05-21T18:13:54.010Z,29.03
2019-05-21T18:16:22.428Z,27.70
2019-05-21T18:18:51.813Z,27.90
2019-05-21T18:21:20.506Z,24.17
2019-05-21T18:23:49.077Z,24.60
2019-05-21T18:26:17.502Z,24.20
2019-05-21T18:28:45.950Z,24.20
2019-05-21T18:31:14.451Z,25.17
2019-05-21T18:33:43.008Z,22.97
2019-05-21T18:36:11.502Z,24.77
2019-05-21T18:38:39.967Z,22.33
2019-05-21T18:41:08.344Z,23.90
2019-05-21T18:43:36.763Z,22.30
2019-05-21T18:46:05.201Z,24.57
2019-05-21T18:48:33.618Z,21.13
2019-05-21T18:51:02.059Z,22.30
2019-05-21T18:53:30.479Z,21.37
2019-05-21T18:55:58.923Z,23.67
2019-05-21T18:58:28.170Z,22.70
2019-05-21T19:00:56.682Z,18.87
2019-05-21T19:03:25.830Z,19.47
2019-05-21T19:05:54.574Z,23.97
2019-05-21T19:08:23.057Z,19.13
2019-05-21T19:10:51.498Z,22.70
2019-05-21T19:13:19.927Z,21.07
2019-05-21T19:15:48.370Z,20.57
2019-05-21T19:18:16.865Z,21.93
2019-05-21T19:20:45.305Z,23.63
2019-05-21T19:23:13.728Z,19.60
2019-05-21T19:25:42.153Z,22.73
2019-05-21T19:28:10.569Z,21.20
2019-05-21T19:30:39.067Z,21.97
2019-05-21T19:33:07.561Z,20.17
2019-05-21T19:35:36.058Z,19.43
2019-05-21T19:38:04.474Z,21.03
2019-05-21T19:40:32.908Z,22.83
2019-05-21T19:43:01.415Z,23.27
2019-05-21T19:45:31.481Z,25.27
2019-05-21T19:48:00.021Z,22.73
2019-05-21T19:50:28.452Z,23.83
2019-05-21T19:52:56.865Z,22.53
2019-05-21T19:55:26.572Z,23.03
2019-05-21T19:57:55.108Z,22.77
2019-05-21T20:00:24.306Z,26.97
2019-05-21T20:02:52.898Z,26.97
2019-05-21T20:05:21.323Z,24.87
2019-05-21T20:07:49.739Z,26.27
2019-05-21T20:10:18.505Z,26.37
2019-05-21T20:12:47.033Z,27.20
2019-05-21T20:15:16.415Z,24.10
2019-05-21T20:17:45.898Z,28.30
2019-05-21T20:20:15.656Z,32.33
2019-05-21T20:22:45.205Z,22.60
2019-05-21T20:25:14.378Z,25.90
2019-05-21T20:27:43.742Z,27.27
2019-05-21T20:30:15.657Z,27.60
2019-05-21T20:32:44.438Z,29.73
2019-05-21T20:35:15.507Z,26.73
2019-05-21T20:37:45.061Z,27.07
2019-05-21T20:40:14.975Z,28.63
2019-05-21T20:42:43.618Z,30.97
2019-05-21T20:45:14.554Z,27.00
2019-05-21T20:47:44.515Z,25.53
2019-05-21T20:50:15.215Z,32.60
2019-05-21T20:52:43.772Z,24.03
2019-05-21T20:55:12.483Z,28.17
2019-05-21T20:57:41.276Z,25.90
2019-05-21T21:00:11.013Z,29.80
2019-05-21T21:02:41.566Z,24.87
2019-05-21T21:05:11.393Z,27.23
2019-05-21T21:07:40.064Z,27.07
2019-05-21T21:10:10.706Z,29.83
2019-05-21T21:12:40.347Z,27.77
2019-05-21T21:15:10.064Z,27.17
2019-05-21T21:17:38.497Z,25.57
2019-05-21T21:20:08.657Z,30.70
2019-05-21T21:22:37.251Z,25.87
2019-05-21T21:25:08.679Z,26.47
2019-05-21T21:27:37.356Z,25.27
2019-05-21T21:30:10.518Z,24.23
2019-05-21T21:32:39.388Z,24.37
2019-05-21T21:35:10.087Z,24.63
2019-05-21T21:37:38.589Z,21.10
2019-05-21T21:40:08.986Z,25.70
2019-05-21T21:42:37.413Z,26.63
2019-05-21T21:45:07.540Z,25.67
2019-05-21T21:47:37.245Z,22.17
2019-05-21T21:50:07.400Z,21.87
2019-05-21T21:52:36.453Z,24.37
2019-05-21T21:55:08.105Z,29.93
2019-05-21T21:57:36.536Z,25.23
2019-05-21T22:00:59.643Z,27.10
2019-05-21T22:03:33.785Z,22.13
2019-05-21T22:06:04.449Z,27.37
2019-05-21T22:08:33.887Z,25.17
2019-05-21T22:11:02.944Z,26.93
2019-05-21T22:13:31.466Z,23.93
2019-05-21T22:16:01.234Z,24.83
2019-05-21T22:18:30.109Z,24.87
2019-05-21T22:20:59.496Z,29.97
2019-05-21T22:23:28.629Z,25.70
2019-05-21T22:25:57.040Z,24.53
2019-05-21T22:28:25.481Z,27.13
2019-05-21T22:30:53.895Z,27.23
2019-05-21T22:33:22.403Z,25.33
2019-05-21T22:35:50.826Z,26.47
2019-05-21T22:38:19.252Z,26.53
2019-05-21T22:40:47.670Z,25.43
2019-05-21T22:43:16.105Z,20.20
2019-05-21T22:45:44.692Z,25.90
2019-05-21T22:48:13.465Z,30.50
2019-05-21T22:50:41.895Z,25.07
2019-05-21T22:53:10.493Z,23.00
2019-05-21T22:55:38.909Z,24.97
2019-05-21T22:58:07.416Z,22.13
2019-05-21T23:00:35.832Z,24.10
2019-05-21T23:03:04.914Z,25.20
2019-05-21T23:05:33.390Z,27.60
2019-05-21T23:08:02.616Z,24.00
2019-05-21T23:10:31.391Z,26.80
2019-05-21T23:12:59.837Z,27.23
2019-05-21T23:15:28.322Z,28.87
2019-05-21T23:17:57.126Z,25.47
2019-05-21T23:20:28.861Z,29.03
2019-05-21T23:22:57.754Z,29.50
2019-05-21T23:25:27.353Z,26.97
2019-05-21T23:27:55.777Z,31.40
2019-05-21T23:30:24.400Z,28.67
2019-05-21T23:32:52.836Z,34.47
2019-05-21T23:35:22.040Z,28.93
2019-05-21T23:37:50.646Z,29.90
2019-05-21T23:40:19.085Z,35.87
2019-05-21T23:42:47.506Z,31.77
2019-05-21T23:45:16.490Z,31.73
2019-05-21T23:47:44.990Z,32.27
2019-05-21T23:50:14.423Z,32.70
2019-05-21T23:52:42.981Z,29.90
2019-05-21T23:55:12.384Z,32.37
2019-05-21T23:57:42.115Z,30.57
